createdAt,value
2023-02-13T00:01:15.184Z,86.89
2023-02-13T00:05:05.330Z,86.71
2023-02-13T00:08:54.031Z,86.14
2023-02-13T00:12:41.710Z,85.83
2023-02-13T00:16:38.220Z,85.87
2023-02-13T00:28:32.427Z,85.77
2023-02-13T00:32:21.810Z,85.87
2023-02-13T00:36:10.844Z,85.93
2023-02-13T00:39:59.786Z,85.93
2023-02-13T00:43:48.880Z,86.27
2023-02-13T00:47:38.117Z,86.24
2023-02-13T00:51:27.324Z,86.16
2023-02-13T01:06:56.878Z,86.00
2023-02-13T01:10:46.251Z,86.12
2023-02-13T01:14:35.504Z,86.20
2023-02-13T01:18:24.560Z,86.20
2023-02-13T01:22:16.857Z,86.48
2023-02-13T01:26:06.259Z,86.63
2023-02-13T01:29:55.453Z,86.93
2023-02-13T01:33:44.832Z,87.08
2023-02-13T01:37:34.251Z,87.32
2023-02-13T01:41:26.193Z,87.28
2023-02-13T01:45:29.154Z,87.01
2023-02-13T02:01:14.936Z,86.12
2023-02-13T02:05:16.255Z,86.46
2023-02-13T02:09:05.329Z,86.57
2023-02-13T02:13:10.377Z,86.47
2023-02-13T02:28:59.626Z,84.99
2023-02-13T02:33:09.982Z,85.04
2023-02-13T02:45:18.261Z,84.65
2023-02-13T02:49:05.718Z,84.50
2023-02-13T03:05:06.134Z,84.28
2023-02-13T03:08:53.832Z,84.35
2023-02-13T03:12:41.287Z,84.41
2023-02-13T03:16:31.745Z,84.43
2023-02-13T03:19:58.959Z,84.63
2023-02-13T03:23:52.746Z,84.77
2023-02-13T03:27:45.968Z,84.82
2023-02-13T03:43:57.013Z,84.89
2023-02-13T03:47:44.689Z,85.23
2023-02-13T03:51:34.353Z,85.59
2023-02-13T03:55:20.013Z,85.86
2023-02-13T03:59:10.345Z,86.10
2023-02-13T04:10:42.925Z,86.91
2023-02-13T04:14:34.624Z,87.18
2023-02-13T04:18:33.031Z,87.37
2023-02-13T04:30:46.375Z,88.04
2023-02-13T04:34:34.551Z,88.18
2023-02-13T04:38:22.165Z,88.43
2023-02-13T04:42:09.766Z,88.75
2023-02-13T04:45:57.338Z,88.92
2023-02-13T04:49:47.766Z,88.99
2023-02-13T04:53:37.142Z,88.97
2023-02-13T04:57:25.949Z,89.08
2023-02-13T05:17:10.112Z,88.90
2023-02-13T05:20:58.038Z,88.33
2023-02-13T05:24:45.878Z,89.13
2023-02-13T05:28:32.288Z,89.43
2023-02-13T05:32:18.788Z,89.68
2023-02-13T05:36:06.532Z,89.85
2023-02-13T05:39:54.163Z,89.99
2023-02-13T05:43:32.381Z,90.09
2023-02-13T05:47:20.039Z,90.14
2023-02-13T05:51:03.156Z,90.18
2023-02-13T05:54:40.579Z,90.06
2023-02-13T05:58:00.082Z,89.96
2023-02-13T06:01:33.279Z,89.93
2023-02-13T06:05:19.310Z,89.89
2023-02-13T06:08:30.052Z,89.95
2023-02-13T06:11:25.191Z,89.93
2023-02-13T06:34:31.677Z,89.91
2023-02-13T06:38:18.267Z,89.93
2023-02-13T06:42:00.513Z,89.84
2023-02-13T06:45:39.867Z,89.77
2023-02-13T06:49:12.108Z,89.65
2023-02-13T06:52:45.581Z,89.41
2023-02-13T06:56:26.821Z,89.09
2023-02-13T07:00:16.396Z,88.83
2023-02-13T07:36:47.914Z,86.61
2023-02-13T07:40:09.779Z,86.08
2023-02-13T07:43:43.635Z,85.52
2023-02-13T07:47:32.541Z,85.83
2023-02-13T08:01:45.961Z,85.58
2023-02-13T08:05:15.944Z,85.14
2023-02-13T08:08:50.012Z,84.67
2023-02-13T08:12:17.530Z,83.49
2023-02-13T08:15:47.054Z,82.93
2023-02-13T08:19:44.911Z,82.42
2023-02-13T08:23:16.493Z,82.24
2023-02-13T08:26:05.317Z,81.13
2023-02-13T08:29:25.675Z,80.96
2023-02-13T08:32:53.037Z,81.45
2023-02-13T08:35:46.709Z,80.28
2023-02-13T08:39:04.522Z,80.12
2023-02-13T08:42:04.211Z,80.98
2023-02-13T08:45:22.269Z,79.55
2023-02-13T08:48:20.557Z,80.60
2023-02-13T08:52:08.849Z,79.94
2023-02-13T08:55:49.360Z,78.92
2023-02-13T08:59:38.563Z,78.12
2023-02-13T09:03:10.591Z,78.68
2023-02-13T09:06:54.499Z,79.46
2023-02-13T09:10:33.751Z,77.60
2023-02-13T09:13:54.828Z,76.55
2023-02-13T09:17:42.965Z,75.91
2023-02-13T09:21:36.027Z,76.12
2023-02-13T09:59:23.183Z,73.36
2023-02-13T10:02:56.098Z,72.69
2023-02-13T10:07:11.188Z,72.50
2023-02-13T10:11:05.225Z,70.50
2023-02-13T10:29:19.387Z,68.50
2023-02-13T10:33:07.184Z,70.57
2023-02-13T10:36:20.415Z,70.55
2023-02-13T10:51:35.737Z,72.85
2023-02-13T10:55:52.029Z,73.34
2023-02-13T10:59:36.702Z,73.69
2023-02-13T11:11:17.945Z,74.11
2023-02-13T11:15:15.185Z,74.49
2023-02-13T11:18:52.890Z,74.61
2023-02-13T11:22:12.977Z,74.80
2023-02-13T11:26:01.528Z,75.14
2023-02-13T11:29:30.964Z,75.20
2023-02-13T11:33:22.397Z,75.45
2023-02-13T11:36:05.369Z,76.26
2023-02-13T11:39:38.133Z,77.01
2023-02-13T11:43:33.229Z,78.10
2023-02-13T11:47:17.704Z,78.28
2023-02-13T11:50:21.445Z,78.35
2023-02-13T11:53:53.462Z,78.74
2023-02-13T12:09:10.617Z,78.50
2023-02-13T12:12:51.344Z,77.85
2023-02-13T12:16:26.009Z,75.73
2023-02-13T12:20:24.002Z,74.19
2023-02-13T12:24:17.316Z,73.92
2023-02-13T12:40:41.058Z,73.96
2023-02-13T12:44:24.132Z,74.47
2023-02-13T12:59:38.543Z,76.62
2023-02-13T13:03:20.342Z,77.41
2023-02-13T13:06:41.800Z,77.74
2023-02-13T13:10:34.096Z,78.42
2023-02-13T13:13:31.985Z,78.14
2023-02-13T13:16:29.338Z,79.33
2023-02-13T13:19:29.301Z,80.05
2023-02-13T13:22:35.026Z,80.78
2023-02-13T13:25:43.818Z,81.17
2023-02-13T13:29:10.829Z,81.19
2023-02-13T13:32:55.449Z,81.97
2023-02-13T13:36:32.607Z,82.25
2023-02-13T13:40:26.301Z,82.30
2023-02-13T13:44:34.292Z,83.14
2023-02-13T13:56:10.075Z,83.88
2023-02-13T13:59:36.954Z,84.71
2023-02-13T14:03:26.759Z,85.20
2023-02-13T14:18:51.436Z,85.27
2023-02-13T14:22:39.113Z,85.98
2023-02-13T14:26:57.932Z,86.20
2023-02-13T14:30:13.788Z,86.33
2023-02-13T14:32:55.028Z,86.49
2023-02-13T14:40:49.877Z,86.62
2023-02-13T14:44:32.495Z,86.83
2023-02-13T15:00:27.428Z,87.02
2023-02-13T15:04:15.131Z,86.78
2023-02-13T15:07:48.461Z,86.67
2023-02-13T15:11:37.669Z,86.59
2023-02-13T15:31:01.227Z,86.12
2023-02-13T15:34:55.589Z,86.80
2023-02-13T15:38:42.855Z,87.08
2023-02-13T15:43:14.301Z,87.33
2023-02-13T15:46:54.782Z,87.44
2023-02-13T16:13:43.527Z,86.66
2023-02-13T16:17:33.107Z,86.88
2023-02-13T16:25:18.330Z,87.72
2023-02-13T16:29:10.238Z,87.86
2023-02-13T16:44:42.012Z,87.75
2023-02-13T16:48:30.335Z,88.23
2023-02-13T16:52:35.366Z,88.46
2023-02-13T17:04:19.797Z,88.14
2023-02-13T17:08:27.649Z,88.21
2023-02-13T17:12:17.022Z,88.03
2023-02-13T17:16:07.117Z,88.30
2023-02-13T17:19:57.118Z,88.32
2023-02-13T17:23:46.451Z,88.37
2023-02-13T17:27:09.026Z,88.17
2023-02-13T18:12:33.277Z,88.22
2023-02-13T18:16:22.339Z,88.19
2023-02-13T18:20:05.688Z,88.23
2023-02-13T18:23:55.716Z,88.30
2023-02-13T18:27:45.865Z,88.29
2023-02-13T18:31:35.777Z,88.28
2023-02-13T18:35:20.374Z,88.31
2023-02-13T18:58:30.627Z,88.51
2023-02-13T19:02:20.211Z,88.51
2023-02-13T19:06:10.559Z,88.58
2023-02-13T19:09:54.205Z,88.62
2023-02-13T19:13:44.101Z,88.41
2023-02-13T19:17:33.752Z,88.31
2023-02-13T19:21:22.991Z,88.34
2023-02-13T19:25:12.035Z,88.23
2023-02-13T19:29:08.867Z,88.18
2023-02-13T19:59:52.116Z,87.96
2023-02-13T20:03:41.321Z,87.96
2023-02-13T20:07:33.193Z,87.88
2023-02-13T20:11:25.250Z,87.84
2023-02-13T20:15:14.419Z,87.76
2023-02-13T20:19:03.417Z,87.72
2023-02-13T20:22:53.539Z,87.49
2023-02-13T20:27:11.628Z,87.09
2023-02-13T20:31:01.510Z,87.04
2023-02-13T20:34:59.450Z,87.06
2023-02-13T20:38:48.804Z,86.97
2023-02-13T20:42:38.190Z,86.95
2023-02-13T20:46:27.582Z,86.92
2023-02-13T20:50:16.638Z,86.91
2023-02-13T20:54:05.961Z,86.83
2023-02-13T20:57:55.004Z,86.72
2023-02-13T21:01:44.355Z,86.71
2023-02-13T21:05:33.513Z,86.66
2023-02-13T21:09:22.489Z,86.54
2023-02-13T21:13:12.804Z,86.55
2023-02-13T21:17:05.027Z,86.57
2023-02-13T21:20:55.345Z,86.52
2023-02-13T21:39:41.808Z,86.45
2023-02-13T21:43:30.654Z,86.35
2023-02-13T21:47:19.859Z,86.36
2023-02-13T21:51:09.141Z,86.33
2023-02-13T21:54:58.608Z,86.42
2023-02-13T21:58:47.800Z,86.39
2023-02-13T22:02:37.198Z,86.34
2023-02-13T22:06:26.492Z,86.46
2023-02-13T22:10:14.568Z,86.32
2023-02-13T22:14:04.535Z,86.05
2023-02-13T22:18:21.111Z,85.69
2023-02-13T22:22:15.625Z,85.66
2023-02-13T22:26:04.322Z,85.57
2023-02-13T22:29:48.118Z,85.51
2023-02-13T22:33:39.132Z,85.31
2023-02-13T22:37:29.175Z,85.20
2023-02-13T22:41:20.308Z,85.05
2023-02-13T22:45:36.696Z,84.88
2023-02-13T22:49:25.740Z,84.89
2023-02-13T22:53:15.035Z,84.91
2023-02-13T22:57:03.906Z,85.03
2023-02-13T23:00:53.324Z,85.11
2023-02-13T23:04:42.559Z,85.13
2023-02-13T23:08:32.589Z,85.12
2023-02-13T23:12:21.157Z,85.13
2023-02-13T23:16:11.827Z,85.22
2023-02-13T23:20:02.038Z,85.36
2023-02-13T23:23:52.020Z,85.43
2023-02-13T23:27:43.088Z,85.57
2023-02-13T23:31:34.602Z,85.69
2023-02-13T23:35:25.193Z,85.91
2023-02-13T23:39:15.839Z,85.96
2023-02-13T23:43:04.791Z,86.10
2023-02-13T23:46:53.797Z,86.17
2023-02-13T23:50:42.835Z,86.12
2023-02-13T23:54:32.888Z,86.55
2023-02-13T23:58:23.929Z,86.78
